KTWF/TWF METAR and TAF weather

Enter ICAO airport designator
Station Type Date Time Source
KTWF METAR 2021/01/17 18:53 UTC NOAA

KTWF 171853Z 27012KT 10SM CLR 08/00 A3026 RMK AO2 SLP245 T00780000


Station Type Date Time Source
KTWF Decoded METAR 2021/01/17 18:53 UTC NOAA

JOSLIN FLD-MAGIC VALLEY REGL, ID, United States (KTWF) 42-29N 114-29W 1266M
Jan 17, 2021 - 01:53 PM EST / 2021.01.17 1853 UTC
Wind: from the W (270 degrees) at 14 MPH (12 KT):0
Visibility: 10 mile(s):0
Sky conditions: clear
Temperature: 46.0 F (7.8 C)
Dew Point: 32.0 F (0.0 C)
Relative Humidity: 57%
Pressure (altimeter): 30.26 in. Hg (1024 hPa)
ob: KTWF 171853Z 27012KT 10SM CLR 08/00 A3026 RMK AO2 SLP245 T00780000
cycle: 19

Station Type Date Time Source
KTWF TAF 2021/01/17 18:42 UTC NOAA

TAF KTWF 171740Z 1718/1818 29009KT P6SM BKN100
FM172300 26014KT P6SM BKN050
FM180300 25015KT P6SM BKN040
FM181000 24010KT P6SM BKN010

Example: see airport list